Time;durP1;ratioP1;P1;durP2;ratioP2;P2;SDS_P1;SDS_P2;PMS_P1;PMS_P2;Temp;Humidity;BMP_temperature;BMP_pressure;BME280_temperature;BME280_humidity;BME280_pressure;Samples;Min_cycle;Max_cycle;Signal;HPM_P1;HPM_P2
2022/05/20 00:01:33;;;;;;;7.87;7.07;;;;;;;11.90;100.00;101146.09;4892132;23;10003357;-67
2022/05/20 00:04:16;;;;;;;8.00;6.85;;;;;;;11.75;100.00;101166.69;5028024;28;20049;-68
2022/05/20 00:06:42;;;;;;;8.30;6.53;;;;;;;11.58;100.00;101168.59;5029217;28;20107;-68
2022/05/20 00:09:08;;;;;;;8.48;6.53;;;;;;;11.11;100.00;101173.41;5012822;28;20064;-68
2022/05/20 00:11:34;;;;;;;8.43;7.13;;;;;;;11.54;100.00;101169.50;5012869;28;20051;-68
2022/05/20 00:14:01;;;;;;;8.05;6.82;;;;;;;11.41;100.00;101180.66;5012739;28;20041;-68
2022/05/20 00:16:27;;;;;;;10.18;6.95;;;;;;;11.23;100.00;101179.19;5029259;28;20040;-68
2022/05/20 00:18:52;;;;;;;7.85;7.03;;;;;;;10.69;100.00;101150.94;5029272;28;20046;-69
2022/05/20 00:21:18;;;;;;;7.90;6.45;;;;;;;11.17;100.00;101178.44;5029090;28;20053;-69
2022/05/20 00:23:43;;;;;;;8.00;6.63;;;;;;;10.84;100.00;101191.47;5029173;28;20515;-68
2022/05/20 00:26:08;;;;;;;8.43;6.15;;;;;;;11.08;100.00;101176.81;5029206;28;20491;-68
2022/05/20 00:28:34;;;;;;;7.30;5.80;;;;;;;10.97;100.00;101183.69;5028890;28;20029;-69
2022/05/20 00:31:06;;;;;;;7.57;6.15;;;;;;;10.86;100.00;101190.63;5012327;28;20132;-69
2022/05/20 00:33:33;;;;;;;7.45;5.85;;;;;;;10.99;100.00;101189.63;5012588;28;20530;-69
2022/05/20 00:35:59;;;;;;;8.82;6.47;;;;;;;10.71;100.00;101145.00;5014547;28;20038;-69
2022/05/20 00:38:26;;;;;;;10.52;5.85;;;;;;;10.85;100.00;101165.19;5012007;28;20025;-70
2022/05/20 00:40:53;;;;;;;9.65;5.88;;;;;;;11.02;100.00;101160.75;4993804;28;20407;-70
2022/05/20 00:43:25;;;;;;;6.53;5.78;;;;;;;11.07;100.00;101190.38;4994069;28;20029;-67
2022/05/20 00:45:52;;;;;;;6.53;5.32;;;;;;;10.70;100.00;101147.53;5011800;28;20022;-67
2022/05/20 00:48:18;;;;;;;7.07;5.30;;;;;;;10.80;100.00;101154.19;5011575;28;20030;-67
2022/05/20 00:50:49;;;;;;;8.13;5.60;;;;;;;10.98;100.00;101156.56;4993555;28;20076;-67
2022/05/20 00:53:17;;;;;;;;;;;;;;;11.34;100.00;101179.91;4994363;28;20033;-67
2022/05/20 00:55:44;;;;;;;6.05;5.10;;;;;;;10.96;100.00;101182.03;4993824;28;19944;-67
2022/05/20 00:58:14;;;;;;;6.63;5.00;;;;;;;10.88;100.00;101183.81;5011284;28;20045;-67
2022/05/20 01:00:44;;;;;;;9.10;5.30;;;;;;;11.21;100.00;101155.44;4993045;28;20116;-67
2022/05/20 01:03:13;;;;;;;5.85;4.53;;;;;;;10.98;100.00;101157.41;5010650;28;20054;-67
2022/05/20 01:05:45;;;;;;;6.53;4.43;;;;;;;11.37;100.00;101191.75;4993348;28;20033;-67
2022/05/20 01:08:13;;;;;;;6.55;4.60;;;;;;;10.55;100.00;101150.22;5011093;28;20482;-70
2022/05/20 01:10:39;;;;;;;4.82;4.07;;;;;;;11.15;100.00;101183.50;5011152;28;20415;-69
2022/05/20 01:13:04;;;;;;;7.53;4.75;;;;;;;10.99;100.00;101181.16;5010905;28;20026;-70
2022/05/20 01:15:30;;;;;;;5.25;4.60;;;;;;;10.96;100.00;101148.09;5011222;28;20041;-70
2022/05/20 01:17:57;;;;;;;5.68;5.00;;;;;;;10.72;100.00;101184.81;5011049;28;20026;-68
2022/05/20 01:20:26;;;;;;;7.55;4.85;;;;;;;10.84;100.00;101182.16;5011062;28;20033;-67
2022/05/20 01:22:54;;;;;;;6.97;4.60;;;;;;;11.21;100.00;101187.72;5010969;28;20022;-68
2022/05/20 01:25:21;;;;;;;6.30;4.70;;;;;;;11.12;100.00;101183.56;5011036;28;20026;-67
2022/05/20 01:27:47;;;;;;;6.68;4.72;;;;;;;10.83;100.00;101188.13;4993448;28;20427;-67
2022/05/20 01:30:16;;;;;;;6.63;4.93;;;;;;;11.05;100.00;101148.03;5010755;28;20034;-67
2022/05/20 01:32:42;;;;;;;7.45;4.70;;;;;;;11.01;100.00;101179.44;5010721;28;20492;-67
2022/05/20 01:35:14;;;;;;;7.63;5.03;;;;;;;10.90;100.00;101181.25;5011152;28;20044;-67
2022/05/20 01:37:40;;;;;;;9.95;7.75;;;;;;;10.86;100.00;101146.50;5010891;28;20126;-67
2022/05/20 01:40:07;;;;;;;6.97;5.95;;;;;;;10.98;100.00;101179.47;5011090;28;20755;-66
2022/05/20 01:42:50;;;;;;;7.55;6.43;;;;;;;10.95;100.00;101182.06;5010758;28;20030;-67
2022/05/20 01:45:27;;;;;;;7.75;6.20;;;;;;;10.68;100.00;101179.75;5014737;28;20036;-66
2022/05/20 01:48:13;;;;;;;8.18;6.38;;;;;;;10.63;100.00;101164.56;5014696;28;20411;-67
2022/05/20 01:50:46;;;;;;;8.27;6.25;;;;;;;10.58;100.00;101128.13;4997040;28;20128;-69
2022/05/20 01:53:23;;;;;;;7.68;5.70;;;;;;;10.67;100.00;101147.56;5014373;28;20063;-67
2022/05/20 01:56:13;;;;;;;7.70;5.82;;;;;;;11.06;100.00;101167.50;4996956;28;20037;-67
2022/05/20 01:58:45;;;;;;;8.68;6.03;;;;;;;10.54;100.00;101164.63;4996993;28;20487;-67
2022/05/20 02:01:20;;;;;;;7.38;5.43;;;;;;;10.88;100.00;101144.78;5014286;28;20352;-67
2022/05/20 02:03:54;;;;;;;7.28;5.53;;;;;;;10.52;100.00;101140.09;5014249;28;20050;-67
2022/05/20 02:06:27;;;;;;;8.68;5.97;;;;;;;10.46;100.00;101166.38;4996780;28;20033;-67
2022/05/20 02:09:07;;;;;;;6.57;5.60;;;;;;;10.53;100.00;101169.72;4996604;28;20048;-67
2022/05/20 02:11:50;;;;;;;7.47;5.28;;;;;;;11.04;100.00;101172.63;4996889;28;20488;-67
2022/05/20 02:14:25;;;;;;;10.05;6.00;;;;;;;10.58;100.00;101176.44;4996585;28;20512;-67
2022/05/20 02:16:57;;;;;;;7.70;5.80;;;;;;;10.59;100.00;101170.53;4996657;28;20058;-67
2022/05/20 02:19:30;;;;;;;6.15;5.55;;;;;;;10.60;100.00;101120.53;4996589;28;20040;-67
2022/05/20 02:22:01;;;;;;;7.85;6.57;;;;;;;10.36;100.00;101183.41;5014298;28;20037;-67
2022/05/20 02:24:30;;;;;;;9.48;6.55;;;;;;;10.37;100.00;101177.50;5014161;28;20030;-67
2022/05/20 02:27:01;;;;;;;8.02;6.70;;;;;;;10.21;100.00;101140.34;5014024;28;20420;-68
2022/05/20 02:29:37;;;;;;;10.60;8.25;;;;;;;10.23;100.00;101141.16;5013979;28;20068;-68
2022/05/20 02:32:21;;;;;;;13.65;9.90;;;;;;;9.92;100.00;101177.78;5013649;28;20055;-68
2022/05/20 02:34:49;;;;;;;9.40;7.20;;;;;;;9.36;100.00;101149.28;5013492;28;20026;-68
2022/05/20 02:37:30;;;;;;;7.68;5.82;;;;;;;9.13;100.00;101171.38;4995941;28;20121;-67
2022/05/20 02:39:57;;;;;;;7.00;5.78;;;;;;;8.70;100.00;101146.09;5013840;28;20107;-67
2022/05/20 02:42:23;;;;;;;8.02;5.68;;;;;;;9.36;100.00;101192.44;4996227;28;20160;-67
2022/05/20 02:44:49;;;;;;;7.13;5.47;;;;;;;9.31;100.00;101179.75;5013565;28;20117;-67
2022/05/20 02:47:15;;;;;;;7.40;5.70;;;;;;;8.99;100.00;101143.50;5013407;28;20030;-68
2022/05/20 02:49:41;;;;;;;7.68;6.20;;;;;;;9.49;100.00;101181.38;5013705;28;20041;-68
2022/05/20 02:52:07;;;;;;;7.93;6.50;;;;;;;9.19;100.00;101173.88;5013334;28;20029;-68
2022/05/20 02:54:33;;;;;;;8.38;6.78;;;;;;;8.92;100.00;101164.66;5013128;28;20458;-67
2022/05/20 02:56:58;;;;;;;8.57;6.97;;;;;;;9.17;100.00;101166.25;5013627;28;20030;-67
2022/05/20 03:04:52;;;;;;;11.55;6.32;;;;;;;9.43;100.00;101189.84;5013013;28;20036;-68
2022/05/20 03:07:17;;;;;;;8.85;6.50;;;;;;;9.78;100.00;101174.47;5013354;28;20407;-67
2022/05/20 03:09:43;;;;;;;9.95;6.68;;;;;;;9.83;100.00;101185.44;5013370;28;20149;-68
2022/05/20 03:12:10;;;;;;;8.48;6.65;;;;;;;10.12;100.00;101152.28;5013158;28;20029;-67
2022/05/20 03:14:36;;;;;;;8.25;6.70;;;;;;;10.14;100.00;101181.88;5013119;28;20030;-67
2022/05/20 03:17:02;;;;;;;8.05;6.38;;;;;;;9.72;100.00;101173.66;4995576;28;20032;-74
2022/05/20 03:19:31;;;;;;;8.60;6.30;;;;;;;10.30;100.00;101178.38;5012929;28;20144;-68
2022/05/20 03:22:06;;;;;;;8.77;6.80;;;;;;;9.78;100.00;101184.63;5013046;28;20034;-68
2022/05/20 03:24:32;;;;;;;10.98;7.25;;;;;;;9.80;100.00;101174.47;5012738;28;20416;-67
2022/05/20 03:26:58;;;;;;;8.05;6.70;;;;;;;9.54;100.00;101142.44;5012685;28;20141;-68
2022/05/20 03:29:24;;;;;;;9.02;7.07;;;;;;;10.15;100.00;101177.66;5012902;28;20057;-68
2022/05/20 03:31:50;;;;;;;11.18;9.95;;;;;;;9.80;100.00;101177.00;5012535;28;20030;-67
2022/05/20 03:34:17;;;;;;;18.10;15.25;;;;;;;10.25;100.00;101195.38;5012815;28;20376;-68
2022/05/20 03:36:49;;;;;;;14.18;12.35;;;;;;;9.89;100.00;101151.53;4995111;28;20527;-66
2022/05/20 03:39:16;;;;;;;;;;;;;;;9.92;100.00;101193.03;4994496;28;20030;-70
2022/05/20 03:41:41;;;;;;;10.00;7.10;;;;;;;9.88;100.00;101165.94;4979755;28;20391;-69
2022/05/20 03:44:09;;;;;;;11.90;7.70;;;;;;;10.00;100.00;101180.28;4992802;28;20057;-68
2022/05/20 03:46:42;;;;;;;11.15;7.38;;;;;;;10.18;100.00;101181.00;4993639;28;20120;-69
2022/05/20 03:49:08;;;;;;;12.35;6.78;;;;;;;10.29;100.00;101153.84;4975481;28;20042;-70
2022/05/20 03:51:34;;;;;;;10.98;7.88;;;;;;;10.27;100.00;101162.31;4975234;28;20042;-73
2022/05/20 03:53:59;;;;;;;9.50;7.63;;;;;;;10.92;100.00;101202.44;4999015;28;20488;-68
2022/05/20 03:56:25;;;;;;;14.77;7.47;;;;;;;10.95;100.00;101212.59;5012095;28;20125;-68
2022/05/20 03:58:50;;;;;;;7.97;7.07;;;;;;;10.77;100.00;101200.88;5012096;28;20034;-68
2022/05/20 04:04:01;;;;;;;9.93;7.32;;;;;;;10.68;100.00;101144.16;5031724;28;20052;-68
2022/05/20 04:06:27;;;;;;;12.32;7.75;;;;;;;11.03;100.00;101200.63;4998318;28;20029;-69
2022/05/20 04:08:52;;;;;;;10.70;7.63;;;;;;;10.46;100.00;101116.38;5011530;28;20037;-69
2022/05/20 04:11:18;;;;;;;9.77;7.03;;;;;;;11.24;100.00;101172.41;5011488;28;20163;-65
2022/05/20 04:13:44;;;;;;;8.82;6.70;;;;;;;11.10;100.00;101203.09;4993823;28;20040;-65
2022/05/20 04:16:11;;;;;;;12.75;6.70;;;;;;;11.44;100.00;101167.91;5011557;28;20527;-66
2022/05/20 04:18:41;;;;;;;13.65;6.22;;;;;;;11.48;100.00;101167.03;5011446;28;20492;-67
2022/05/20 04:21:08;;;;;;;9.43;6.50;;;;;;;11.69;100.00;101193.94;4993362;28;20029;-66
2022/05/20 04:23:34;;;;;;;11.57;6.43;;;;;;;11.78;100.00;101181.09;5011525;28;20072;-66
2022/05/20 04:25:59;;;;;;;8.60;7.05;;;;;;;11.75;100.00;101160.72;5011385;28;20061;-66
2022/05/20 04:28:25;;;;;;;17.20;11.63;;;;;;;11.97;100.00;101157.03;4993834;28;20093;-66
2022/05/20 04:30:56;;;;;;;15.65;13.98;;;;;;;12.29;100.00;101197.34;5011154;28;20029;-66
2022/05/20 04:33:22;;;;;;;15.30;11.10;;;;;;;12.15;100.00;101195.84;5011197;28;20033;-68
2022/05/20 04:35:47;;;;;;;12.20;8.35;;;;;;;11.80;100.00;101153.88;5011012;28;20084;-67
2022/05/20 04:38:12;;;;;;;11.48;6.80;;;;;;;12.08;100.00;101143.25;5011089;28;20471;-67
2022/05/20 04:40:38;;;;;;;11.30;6.50;;;;;;;12.54;100.00;101185.91;5011277;28;20087;-68
2022/05/20 04:48:31;;;;;;;11.27;7.13;;;;;;;12.59;100.00;101144.13;5010959;28;20432;-66
2022/05/20 04:50:56;;;;;;;9.15;7.28;;;;;;;13.19;100.00;101192.41;5010868;28;20030;-66
2022/05/20 04:56:07;;;;;;;17.48;9.07;;;;;;;13.07;100.00;101191.75;4990027;28;20429;-67
2022/05/20 04:58:33;;;;;;;14.10;9.93;;;;;;;13.36;100.00;101192.91;5010632;28;20038;-67
2022/05/20 05:00:58;;;;;;;13.88;10.65;;;;;;;13.09;100.00;101170.47;5010941;28;20038;-67
2022/05/20 05:03:24;;;;;;;18.02;12.30;;;;;;;13.58;100.00;101172.00;5026188;28;20103;-66
2022/05/20 05:05:50;;;;;;;14.27;8.60;;;;;;;13.38;100.00;101209.03;5017992;28;20033;-66
2022/05/20 05:08:17;;;;;;;12.90;6.00;;;;;;;13.46;100.00;101204.63;5018123;28;20188;-67
2022/05/20 05:10:44;;;;;;;13.55;6.88;;;;;;;13.76;100.00;101206.56;5030099;28;20091;-66
2022/05/20 05:13:09;;;;;;;8.85;6.22;;;;;;;14.06;100.00;101171.81;5030355;28;20029;-75
2022/05/20 05:15:37;;;;;;;8.45;5.85;;;;;;;13.62;100.00;101168.53;5030745;28;20045;-67
2022/05/20 05:18:17;;;;;;;9.00;6.35;;;;;;;13.77;100.00;101152.84;5031253;28;20025;-68
2022/05/20 05:20:51;;;;;;;11.43;6.93;;;;;;;13.22;100.00;101202.56;5034366;28;20029;-67
2022/05/20 05:23:18;;;;;;;10.95;6.90;;;;;;;14.16;100.00;101170.72;5033028;28;20033;-67
2022/05/20 05:25:44;;;;;;;11.60;6.60;;;;;;;14.80;100.00;101214.34;5032954;28;20057;-67
2022/05/20 05:28:09;;;;;;;8.57;6.07;;;;;;;14.91;100.00;101191.91;5032361;28;20511;-69
2022/05/20 05:30:35;;;;;;;10.20;6.22;;;;;;;14.85;100.00;101214.25;5034353;28;20026;-68
2022/05/20 05:33:01;;;;;;;13.32;6.10;;;;;;;15.17;100.00;101189.44;5034521;28;20086;-67
2022/05/20 05:35:29;;;;;;;10.43;5.78;;;;;;;15.41;100.00;101183.66;5034568;28;20120;-68
2022/05/20 05:37:55;;;;;;;7.88;5.45;;;;;;;15.10;100.00;101185.38;5034379;28;20037;-67
2022/05/20 05:40:26;;;;;;;7.80;5.82;;;;;;;15.29;100.00;101176.31;5034116;28;20561;-66
2022/05/20 05:42:52;;;;;;;8.90;5.80;;;;;;;15.90;100.00;101215.59;5034162;28;20040;-67
2022/05/20 05:45:20;;;;;;;10.80;5.60;;;;;;;15.88;100.00;101197.69;5034118;28;20083;-67
2022/05/20 05:47:50;;;;;;;8.15;5.85;;;;;;;15.57;100.00;101178.94;5032910;28;20029;-68
2022/05/20 05:50:15;;;;;;;9.00;5.38;;;;;;;15.95;100.00;101212.00;5032421;28;20026;-67
2022/05/20 05:52:41;;;;;;;8.88;5.13;;;;;;;16.04;100.00;101198.91;5033962;28;20040;-68
2022/05/20 05:55:07;;;;;;;6.95;4.90;;;;;;;16.50;100.00;101208.56;5033734;28;20081;-67
2022/05/20 05:57:32;;;;;;;10.98;5.10;;;;;;;16.51;100.00;101209.44;5034102;28;20411;-67
2022/05/20 05:59:58;;;;;;;8.85;5.55;;;;;;;17.21;100.00;101191.56;5033774;28;20021;-67
2022/05/20 06:02:24;;;;;;;5.18;4.35;;;;;;;16.96;100.00;101193.31;5033660;28;20140;-67
2022/05/20 06:04:51;;;;;;;7.22;3.90;;;;;;;16.46;100.00;101199.25;5033889;28;20535;-68
2022/05/20 06:07:17;;;;;;;6.90;4.32;;;;;;;17.06;100.00;101174.13;5032210;28;20413;-68
2022/05/20 06:09:43;;;;;;;6.75;4.03;;;;;;;16.72;100.00;101229.28;5033853;28;20030;-67
2022/05/20 06:12:09;;;;;;;5.47;4.05;;;;;;;17.06;100.00;101219.53;5033682;28;20048;-68
2022/05/20 06:14:35;;;;;;;8.20;3.80;;;;;;;17.50;100.00;101216.25;5033631;28;20407;-67
2022/05/20 06:17:01;;;;;;;6.00;4.40;;;;;;;17.06;100.00;101198.97;5033491;28;20025;-67
2022/05/20 06:19:27;;;;;;;5.80;4.07;;;;;;;16.72;100.00;101221.59;5033188;28;20116;-66
2022/05/20 06:21:52;;;;;;;8.45;4.40;;;;;;;17.62;100.00;101213.25;5033420;28;20087;-66
2022/05/20 06:24:18;;;;;;;5.53;4.50;;;;;;;17.35;100.00;101186.75;5031963;28;20029;-67
2022/05/20 06:26:43;;;;;;;4.32;3.70;;;;;;;17.53;100.00;101182.69;5033291;28;20037;-66
2022/05/20 06:29:09;;;;;;;4.43;4.00;;;;;;;17.64;100.00;101218.31;5032714;28;20116;-66
2022/05/20 06:31:35;;;;;;;8.02;4.55;;;;;;;18.45;100.00;101222.88;5033324;28;20033;-66
2022/05/20 06:34:00;;;;;;;5.72;4.03;;;;;;;17.35;100.00;101194.47;5031835;28;20033;-66
2022/05/20 06:41:55;;;;;;;4.30;3.70;;;;;;;18.81;100.00;101187.03;5024627;28;20510;-67
2022/05/20 06:44:21;;;;;;;4.53;3.80;;;;;;;18.35;100.00;101190.63;5031824;28;20029;-68
2022/05/20 06:46:47;;;;;;;7.07;3.95;;;;;;;18.24;100.00;101200.53;5032879;28;20037;-68
2022/05/20 06:49:13;;;;;;;5.72;3.65;;;;;;;17.61;100.00;101196.13;5032808;28;20048;-68
2022/05/20 06:51:38;;;;;;;6.05;3.65;;;;;;;19.54;100.00;101213.91;5031775;28;20033;-69
2022/05/20 06:54:06;;;;;;;4.10;3.40;;;;;;;19.74;100.00;101231.91;5033026;28;20124;-67
2022/05/20 06:56:32;;;;;;;4.68;3.15;;;;;;;19.59;100.00;101190.47;5032527;28;20028;-68
2022/05/20 06:58:59;;;;;;;14.35;3.53;;;;;;;19.94;100.00;101219.81;5032704;28;20030;-70
2022/05/20 07:01:25;;;;;;;8.57;3.40;;;;;;;20.37;100.00;101209.97;5032594;28;20033;-68
2022/05/20 07:03:51;;;;;;;6.47;3.60;;;;;;;20.28;100.00;101207.00;5032058;28;20119;-68
2022/05/20 07:06:17;;;;;;;6.53;3.60;;;;;;;20.41;100.00;101215.81;5032949;28;20030;-67
2022/05/20 07:08:48;;;;;;;6.38;3.40;;;;;;;20.00;100.00;101173.03;5032859;28;20038;-68
2022/05/20 07:11:18;;;;;;;5.95;3.05;;;;;;;20.81;99.60;101217.28;5032392;28;20112;-68
2022/05/20 07:13:44;;;;;;;3.55;3.00;;;;;;;18.66;99.77;101196.22;5031411;28;20033;-68
2022/05/20 07:16:10;;;;;;;5.35;2.50;;;;;;;20.57;98.60;101184.00;5032290;28;20026;-69
2022/05/20 07:18:35;;;;;;;4.05;2.85;;;;;;;20.72;96.58;101185.81;5031329;28;20037;-68
2022/05/20 07:21:01;;;;;;;7.40;2.95;;;;;;;20.95;96.85;101145.84;5024953;28;20034;-68
2022/05/20 07:23:29;;;;;;;7.43;3.10;;;;;;;21.08;93.81;101197.81;5031046;28;20072;-69
2022/05/20 07:25:55;;;;;;;5.63;2.35;;;;;;;21.36;89.01;101179.91;5032392;28;20502;-70
2022/05/20 07:28:21;;;;;;;5.82;2.45;;;;;;;20.35;87.77;101198.03;5031011;28;20037;-68
2022/05/20 07:30:46;;;;;;;8.27;2.40;;;;;;;20.88;84.93;101216.06;5031987;28;20033;-69
2022/05/20 07:33:12;;;;;;;4.35;2.60;;;;;;;20.63;82.38;101196.63;5032071;28;20037;-68
2022/05/20 07:35:38;;;;;;;4.53;2.00;;;;;;;21.89;79.67;101208.16;5030340;28;20095;-69
2022/05/20 07:38:04;;;;;;;3.90;2.00;;;;;;;22.65;77.04;101200.31;5029811;28;20030;-68
2022/05/20 07:40:30;;;;;;;5.47;2.00;;;;;;;21.33;81.83;101185.28;5030998;28;20025;-68
2022/05/20 07:42:55;;;;;;;3.35;2.15;;;;;;;21.04;87.01;101209.22;5031480;28;20052;-68
2022/05/20 07:45:20;;;;;;;3.65;2.60;;;;;;;21.03;88.01;101204.97;5031517;28;20021;-70
2022/05/20 07:47:46;;;;;;;3.90;2.50;;;;;;;22.30;87.16;101199.69;5031956;28;20116;-68
2022/05/20 07:50:13;;;;;;;3.60;2.40;;;;;;;21.87;86.45;101213.38;5030717;28;20505;-69
2022/05/20 07:55:31;;;;;;;3.97;1.90;;;;;;;22.01;87.77;101176.34;5031959;28;20095;-69
2022/05/20 07:57:57;;;;;;;3.50;2.20;;;;;;;22.13;79.66;101202.41;5031113;28;20124;-69
2022/05/20 08:00:24;;;;;;;5.65;2.50;;;;;;;22.26;82.26;101168.88;5031757;28;20123;-69
2022/05/20 08:02:52;;;;;;;2.75;2.20;;;;;;;22.75;86.82;101190.22;5031368;28;20052;-68
2022/05/20 08:05:20;;;;;;;4.45;2.20;;;;;;;21.88;82.26;101196.94;5031777;28;20121;-68
2022/05/20 08:07:47;;;;;;;4.15;2.13;;;;;;;21.92;79.40;101175.13;5031418;28;20384;-68
2022/05/20 08:10:21;;;;;;;4.63;2.22;;;;;;;22.70;76.55;101171.53;5031220;28;20083;-68
2022/05/20 08:12:47;;;;;;;2.47;1.90;;;;;;;22.79;75.37;101202.09;5031348;28;20029;-69
2022/05/20 08:15:14;;;;;;;4.78;1.90;;;;;;;23.66;75.53;101178.56;5031307;28;20451;-68
2022/05/20 08:17:43;;;;;;;6.93;2.20;;;;;;;22.76;74.89;101195.31;5031271;28;20018;-68
2022/05/20 08:20:13;;;;;;;3.03;1.85;;;;;;;22.59;73.51;101190.28;5030977;28;20037;-68
2022/05/20 08:22:39;;;;;;;2.28;1.77;;;;;;;21.79;71.90;101139.59;5016455;28;20033;-68
2022/05/20 08:25:05;;;;;;;3.88;1.98;;;;;;;22.63;73.20;101178.81;5011452;28;20026;-69
2022/05/20 08:27:31;;;;;;;3.58;2.03;;;;;;;23.62;67.75;101177.06;5011997;28;20065;-68
2022/05/20 08:29:57;;;;;;;4.40;1.73;;;;;;;23.49;65.72;101152.81;5011343;28;20112;-67
2022/05/20 08:32:23;;;;;;;4.15;1.70;;;;;;;24.57;66.06;101138.78;5011637;28;20034;-68
2022/05/20 08:34:50;;;;;;;3.47;1.60;;;;;;;23.79;65.96;101166.44;5011292;28;20071;-68
2022/05/20 08:37:17;;;;;;;4.18;1.92;;;;;;;24.11;65.60;101140.19;5011206;28;20030;-68
2022/05/20 08:39:43;;;;;;;3.53;1.70;;;;;;;23.38;63.66;101133.63;5009482;28;20112;-67
2022/05/20 08:42:16;;;;;;;5.63;1.50;;;;;;;23.78;61.67;101131.03;5011198;28;20176;-69
2022/05/20 08:44:43;;;;;;;2.80;1.60;;;;;;;24.23;60.41;101155.81;5011037;28;20049;-67
2022/05/20 08:47:23;;;;;;;3.90;1.75;;;;;;;24.79;58.25;101154.66;5011138;28;20113;-67
2022/05/20 08:49:53;;;;;;;2.80;1.73;;;;;;;24.91;58.54;101140.81;5010815;28;20026;-66
2022/05/20 08:52:19;;;;;;;6.95;1.77;;;;;;;25.01;58.11;101113.22;5009348;28;20025;-66
2022/05/20 08:54:45;;;;;;;3.65;1.40;;;;;;;25.95;54.92;101151.56;5011119;28;20034;-67
2022/05/20 08:57:21;;;;;;;5.53;1.92;;;;;;;25.23;54.16;101121.19;5010712;28;20036;-69
2022/05/20 08:59:47;;;;;;;3.45;1.48;;;;;;;25.36;51.75;101082.91;5010927;28;20022;-68
2022/05/20 09:02:12;;;;;;;3.55;1.30;;;;;;;25.68;51.54;101124.91;5010677;28;20049;-68
2022/05/20 09:04:38;;;;;;;4.13;1.30;;;;;;;25.43;52.03;101117.19;5010575;28;20108;-71
2022/05/20 09:07:12;;;;;;;1.42;1.15;;;;;;;25.28;52.26;101133.88;5017768;28;20029;-69
2022/05/20 09:09:46;;;;;;;2.53;1.40;;;;;;;24.57;51.50;101134.44;5030560;28;20108;-71
2022/05/20 09:12:37;;;;;;;5.25;1.60;;;;;;;25.15;52.70;101123.50;5031147;28;20533;-69
2022/05/20 09:17:57;;;;;;;;;;;;;;;25.28;50.90;101118.22;5031555;28;19924;-68
2022/05/20 09:20:23;;;;;;;;;;;;;;;25.54;51.96;101118.09;5031775;28;19924;-69
2022/05/20 09:22:56;;;;;;;;;;;;;;;26.28;50.77;101114.38;5031140;28;20003;-70
2022/05/20 09:25:25;;;;;;;;;;;;;;;25.90;51.73;101113.75;5030227;28;19944;-69
2022/05/20 09:27:52;;;;;;;;;;;;;;;26.78;52.03;101097.53;5030999;28;20311;-68
2022/05/20 09:30:20;;;;;;;;;;;;;;;27.03;52.43;101092.03;5031274;28;20470;-70
2022/05/20 09:33:12;;;;;;;;;;;;;;;26.40;51.82;101096.00;5031334;28;20004;-69
2022/05/20 09:35:38;;;;;;;;;;;;;;;26.25;50.75;101091.97;5025702;28;19913;-68
2022/05/20 09:38:23;;;;;;;;;;;;;;;26.68;50.53;101083.47;5031193;28;20341;-68
2022/05/20 09:40:51;;;;;;;;;;;;;;;26.91;49.70;101070.34;5019980;28;19921;-67
2022/05/20 09:43:25;;;;;;;;;;;;;;;26.57;50.41;101077.31;5031179;28;20016;-68
2022/05/20 09:45:51;;;;;;;;;;;;;;;24.67;51.51;101077.41;5029800;28;20371;-70
2022/05/20 09:48:34;;;;;;;;;;;;;;;25.81;50.19;101070.13;5031254;28;19913;-68
2022/05/20 09:51:05;;;;;;;;;;;;;;;26.88;49.83;101054.88;5030972;28;19971;-69
2022/05/20 09:53:36;;;;;;;;;;;;;;;26.16;50.04;101063.16;5030939;28;19913;-67
2022/05/20 09:56:13;;;;;;;;;;;;;;;26.39;49.36;101059.63;5029181;28;19909;-72
2022/05/20 09:58:39;;;;;;;;;;;;;;;25.36;50.42;101051.66;5026660;28;20355;-68
2022/05/20 10:01:11;;;;;;;;;;;;;;;25.67;49.33;101060.72;5027857;28;19937;-70
2022/05/20 10:03:43;;;;;;;;;;;;;;;26.04;49.55;101061.41;5027148;28;20004;-69
2022/05/20 10:06:13;;;;;;;;;;;;;;;25.70;50.14;101056.09;5033203;28;19999;-68
2022/05/20 10:08:44;;;;;;;;;;;;;;;26.46;48.77;101045.97;5032978;28;20008;-68
2022/05/20 10:11:12;;;;;;;;;;;;;;;26.19;48.62;101042.03;5032597;28;20298;-69
2022/05/20 10:13:53;;;;;;;;;;;;;;;27.03;50.51;101037.19;5032838;28;19920;-68
2022/05/20 10:16:36;;;;;;;;;;;;;;;26.11;50.61;101042.63;5033822;28;19908;-69
2022/05/20 10:19:11;;;;;;;;;;;;;;;26.99;49.52;101043.59;5033613;28;20438;-69
2022/05/20 10:22:02;;;;;;;;;;;;;;;25.48;49.81;101035.16;5033475;28;19916;-71
2022/05/20 10:24:41;;;;;;;;;;;;;;;25.33;50.16;101033.66;5031347;28;19909;-69
2022/05/20 10:27:11;;;;;;;;;;;;;;;27.00;49.89;101030.44;5034078;28;20383;-68
2022/05/20 10:32:34;;;;;;;;;;;;;;;26.71;49.91;101020.63;5033642;28;20220;-68
2022/05/20 10:35:01;;;;;;;;;;;;;;;26.89;51.73;101014.78;5033851;28;20395;-69
2022/05/20 10:37:39;;;;;;;;;;;;;;;27.22;51.96;101014.69;5033508;28;20009;-68
2022/05/20 10:40:07;;;;;;;;;;;;;;;25.91;50.82;101022.38;5021089;28;19916;-69
2022/05/20 10:42:35;;;;;;;;;;;;;;;26.98;50.38;101005.41;5016468;28;20296;-71
2022/05/20 10:50:31;;;;;;;;;;;;;;;26.95;49.81;101003.88;5033627;28;19916;-68
2022/05/20 10:53:08;;;;;;;;;;;;;;;27.50;49.05;100997.63;5033555;28;19909;-69
2022/05/20 10:55:43;;;;;;;;;;;;;;;27.64;48.82;100992.09;5032100;28;20350;-69
2022/05/20 10:58:11;;;;;;;;;;;;;;;27.70;48.83;100988.16;5033754;28;20008;-69
2022/05/20 11:00:52;;;;;;;;;;;;;;;27.17;49.38;100980.31;5033201;28;20291;-69
2022/05/20 11:03:23;;;;;;;;;;;;;;;27.04;48.05;100979.63;5031932;28;19979;-71
2022/05/20 11:05:48;;;;;;;;;;;;;;;28.40;50.27;100978.66;5031973;28;19924;-69
2022/05/20 11:08:37;;;;;;;;;;;;;;;26.05;48.97;100974.44;5033499;28;19909;-68
2022/05/20 11:11:12;;;;;;;;;;;;;;;27.72;48.35;100966.16;5031818;28;19915;-68
2022/05/20 11:13:46;;;;;;;;;;;;;;;27.66;48.35;100971.06;5033333;28;19912;-69
2022/05/20 11:16:31;;;;;;;;;;;;;;;26.73;49.72;100969.13;5032889;28;20465;-68
2022/05/20 11:19:21;;;;;;;;;;;;;;;26.57;49.44;100959.03;5031725;28;19957;-68
2022/05/20 11:21:54;;;;;;;;;;;;;;;27.49;48.33;100955.97;5032906;28;19908;-67
2022/05/20 11:24:29;;;;;;;;;;;;;;;27.30;50.75;100944.38;5032700;28;19916;-68
2022/05/20 11:26:55;;;;;;;;;;;;;;;27.77;48.14;100944.88;5033047;28;20344;-68
2022/05/20 11:29:38;;;;;;;;;;;;;;;27.45;49.28;100943.13;5033224;28;20359;-68
2022/05/20 11:32:05;;;;;;;;;;;;;;;28.03;48.35;100938.25;5032796;28;19916;-69
2022/05/20 11:34:38;;;;;;;;;;;;;;;27.58;47.65;100936.88;5032567;28;20278;-68
2022/05/20 11:37:18;;;;;;;;;;;;;;;27.27;47.09;100936.81;5032743;28;20272;-67
2022/05/20 11:39:52;;;;;;;;;;;;;;;27.21;49.31;100929.47;5032552;28;19916;-68
2022/05/20 11:42:33;;;;;;;;;;;;;;;27.53;47.01;100924.22;5012473;28;19914;-67
2022/05/20 11:45:10;;;;;;;;;;;;;;;28.54;46.40;100925.94;5012615;28;19936;-68
2022/05/20 11:47:45;;;;;;;;;;;;;;;27.81;47.53;100923.53;5030717;28;19948;-67
2022/05/20 11:50:26;;;;;;;;;;;;;;;26.49;48.69;100922.28;5031094;28;19908;-67
2022/05/20 11:53:11;;;;;;;;;;;;;;;27.85;48.57;100911.88;5032355;28;19904;-67
2022/05/20 11:55:52;;;;;;;;;;;;;;;27.49;47.05;100911.53;5017854;28;19909;-68
2022/05/20 11:58:38;;;;;;;;;;;;;;;28.19;46.25;100913.28;5032044;28;19912;-69
2022/05/20 12:01:05;;;;;;;;;;;;;;;27.87;45.48;100903.91;5023013;28;19913;-71
2022/05/20 12:04:06;;;;;;;;;;;;;;;27.25;46.51;100891.69;5010877;28;19920;-69
2022/05/20 12:06:21;;;;;;;;;;;;;;;27.82;47.26;100886.00;5012401;28;20334;-69
2022/05/20 12:08:48;;;;;;;;;;;;;;;27.37;47.62;100882.03;5012617;28;19909;-71
2022/05/20 12:11:22;;;;;;;;;;;;;;;27.40;46.19;100879.16;5012513;28;20012;-69
2022/05/20 12:13:56;;;;;;;;;;;;;;;28.19;45.91;100878.44;5012311;28;19913;-67
2022/05/20 12:16:22;;;;;;;;;;;;;;;28.50;45.70;100874.81;5031524;28;19932;-74
2022/05/20 12:24:33;;;;;;;;;;;;;;;28.53;47.05;100863.22;5011985;28;20387;-67
2022/05/20 12:26:58;;;;;;;;;;;;;;;28.10;45.66;100855.72;5011043;28;19909;-68
2022/05/20 12:29:35;;;;;;;;;;;;;;;28.54;46.57;100857.88;5012154;28;19909;-68